Alta Sierra, California
Current Conditions -  °F | °C
As of 6:20 AM on Thursday 18 Dec 2014 (Local Time) from KGOO Reporting Station
Overcast Overcast  
Wind Chill: 39°   Ceiling: 4200
Heat Index: 39°   Visibility: 10mi
Dew Point: 37°   Wind: 3mph
Humidity: 93%   Direction: 310°NW
Pressure: 30.13"   Gusts: NA
Location:  39.2183°N, 120.924°W
Report Text: KGOO 181420Z AUTO 31003KT 10SM OVC042 04/03 A3013 RMK AO1
Loading
Personal Weather Stations






























Interactive Weather Map New forecast layout! Learn more

10-Day Weather Forecast

Advertisements
Track Severe Weather on mobile